sensor_id;sensor_type;location;lat;lon;timestamp;P1;durP1;ratioP1;P2;durP2;ratioP2
43226;SDS011;28839;52.404;9.808;2022-10-31T00:02:10;22.13;;;8.48;;
43226;SDS011;28839;52.404;9.808;2022-10-31T00:09:04;17.43;;;7.87;;
43226;SDS011;28839;52.404;9.808;2022-10-31T00:15:59;19.63;;;8.87;;
43226;SDS011;28839;52.404;9.808;2022-10-31T00:22:53;19.52;;;9.05;;
43226;SDS011;28839;52.404;9.808;2022-10-31T00:29:50;14.70;;;9.05;;
43226;SDS011;28839;52.404;9.808;2022-10-31T00:36:45;18.03;;;9.73;;
43226;SDS011;28839;52.404;9.808;2022-10-31T00:43:39;17.70;;;10.90;;
43226;SDS011;28839;52.404;9.808;2022-10-31T00:50:33;20.27;;;10.73;;
43226;SDS011;28839;52.404;9.808;2022-10-31T00:57:28;20.63;;;11.17;;
43226;SDS011;28839;52.404;9.808;2022-10-31T01:04:22;26.23;;;13.50;;
43226;SDS011;28839;52.404;9.808;2022-10-31T01:11:16;28.23;;;15.23;;
43226;SDS011;28839;52.404;9.808;2022-10-31T01:18:13;27.90;;;15.77;;
43226;SDS011;28839;52.404;9.808;2022-10-31T01:25:07;32.08;;;17.17;;
43226;SDS011;28839;52.404;9.808;2022-10-31T01:32:05;33.20;;;20.10;;
43226;SDS011;28839;52.404;9.808;2022-10-31T01:39:01;40.33;;;22.53;;
43226;SDS011;28839;52.404;9.808;2022-10-31T01:45:56;43.70;;;24.05;;
43226;SDS011;28839;52.404;9.808;2022-10-31T01:52:50;45.60;;;25.73;;
43226;SDS011;28839;52.404;9.808;2022-10-31T01:59:47;45.95;;;27.10;;
43226;SDS011;28839;52.404;9.808;2022-10-31T02:06:45;55.05;;;26.80;;
43226;SDS011;28839;52.404;9.808;2022-10-31T02:13:42;53.17;;;29.23;;
43226;SDS011;28839;52.404;9.808;2022-10-31T02:20:39;57.40;;;30.50;;
43226;SDS011;28839;52.404;9.808;2022-10-31T02:27:44;48.65;;;29.77;;
43226;SDS011;28839;52.404;9.808;2022-10-31T02:34:57;62.27;;;31.93;;
43226;SDS011;28839;52.404;9.808;2022-10-31T02:41:58;53.45;;;30.80;;
43226;SDS011;28839;52.404;9.808;2022-10-31T02:48:59;55.60;;;32.10;;
43226;SDS011;28839;52.404;9.808;2022-10-31T02:56:00;53.97;;;31.40;;
43226;SDS011;28839;52.404;9.808;2022-10-31T03:02:59;54.72;;;30.42;;
43226;SDS011;28839;52.404;9.808;2022-10-31T03:10:03;49.23;;;30.33;;
43226;SDS011;28839;52.404;9.808;2022-10-31T03:17:06;52.30;;;30.23;;
43226;SDS011;28839;52.404;9.808;2022-10-31T03:24:03;52.92;;;31.87;;
43226;SDS011;28839;52.404;9.808;2022-10-31T03:31:01;53.08;;;29.80;;
43226;SDS011;28839;52.404;9.808;2022-10-31T03:37:59;52.03;;;28.27;;
43226;SDS011;28839;52.404;9.808;2022-10-31T03:44:56;43.58;;;27.87;;
43226;SDS011;28839;52.404;9.808;2022-10-31T03:51:54;46.72;;;28.73;;
43226;SDS011;28839;52.404;9.808;2022-10-31T03:58:55;53.00;;;31.75;;
43226;SDS011;28839;52.404;9.808;2022-10-31T04:05:53;45.45;;;27.98;;
43226;SDS011;28839;52.404;9.808;2022-10-31T04:12:51;48.75;;;28.60;;
43226;SDS011;28839;52.404;9.808;2022-10-31T04:19:50;43.05;;;27.77;;
43226;SDS011;28839;52.404;9.808;2022-10-31T04:26:44;48.05;;;29.95;;
43226;SDS011;28839;52.404;9.808;2022-10-31T04:33:38;52.47;;;30.03;;
43226;SDS011;28839;52.404;9.808;2022-10-31T04:40:33;54.17;;;31.90;;
43226;SDS011;28839;52.404;9.808;2022-10-31T04:47:27;48.47;;;28.92;;
43226;SDS011;28839;52.404;9.808;2022-10-31T04:54:24;49.88;;;29.73;;
43226;SDS011;28839;52.404;9.808;2022-10-31T05:01:19;53.15;;;31.65;;
43226;SDS011;28839;52.404;9.808;2022-10-31T05:08:13;47.47;;;26.77;;
43226;SDS011;28839;52.404;9.808;2022-10-31T05:15:07;42.27;;;27.67;;
43226;SDS011;28839;52.404;9.808;2022-10-31T05:22:02;44.55;;;27.73;;
43226;SDS011;28839;52.404;9.808;2022-10-31T05:28:56;50.67;;;29.40;;
43226;SDS011;28839;52.404;9.808;2022-10-31T05:35:50;46.28;;;27.00;;
43226;SDS011;28839;52.404;9.808;2022-10-31T05:42:45;46.70;;;26.50;;
43226;SDS011;28839;52.404;9.808;2022-10-31T05:49:39;51.25;;;28.62;;
43226;SDS011;28839;52.404;9.808;2022-10-31T05:56:33;47.80;;;27.48;;
43226;SDS011;28839;52.404;9.808;2022-10-31T06:03:28;41.22;;;23.80;;
43226;SDS011;28839;52.404;9.808;2022-10-31T06:10:22;46.75;;;27.23;;
43226;SDS011;28839;52.404;9.808;2022-10-31T06:17:16;51.13;;;28.67;;
43226;SDS011;28839;52.404;9.808;2022-10-31T06:24:11;51.50;;;27.70;;
43226;SDS011;28839;52.404;9.808;2022-10-31T06:31:06;52.42;;;28.15;;
43226;SDS011;28839;52.404;9.808;2022-10-31T06:38:00;37.65;;;24.15;;
43226;SDS011;28839;52.404;9.808;2022-10-31T06:44:55;44.70;;;26.45;;
43226;SDS011;28839;52.404;9.808;2022-10-31T06:51:49;48.90;;;29.02;;
43226;SDS011;28839;52.404;9.808;2022-10-31T06:58:44;43.93;;;27.63;;
43226;SDS011;28839;52.404;9.808;2022-10-31T07:05:39;38.00;;;25.37;;
43226;SDS011;28839;52.404;9.808;2022-10-31T07:12:33;63.15;;;33.67;;
43226;SDS011;28839;52.404;9.808;2022-10-31T07:19:27;61.20;;;29.50;;
43226;SDS011;28839;52.404;9.808;2022-10-31T07:26:22;51.90;;;31.27;;
43226;SDS011;28839;52.404;9.808;2022-10-31T07:33:16;51.22;;;30.77;;
43226;SDS011;28839;52.404;9.808;2022-10-31T07:40:10;66.45;;;34.08;;
43226;SDS011;28839;52.404;9.808;2022-10-31T07:47:07;56.83;;;32.28;;
43226;SDS011;28839;52.404;9.808;2022-10-31T07:54:01;56.63;;;33.22;;
43226;SDS011;28839;52.404;9.808;2022-10-31T08:00:55;82.63;;;73.13;;
43226;SDS011;28839;52.404;9.808;2022-10-31T08:07:52;62.08;;;36.13;;
43226;SDS011;28839;52.404;9.808;2022-10-31T08:14:46;492.95;;;315.40;;
43226;SDS011;28839;52.404;9.808;2022-10-31T08:21:40;1221.38;;;721.72;;
43226;SDS011;28839;52.404;9.808;2022-10-31T08:28:35;52.30;;;37.72;;
43226;SDS011;28839;52.404;9.808;2022-10-31T08:35:29;52.83;;;43.25;;
43226;SDS011;28839;52.404;9.808;2022-10-31T08:42:24;858.70;;;425.27;;
43226;SDS011;28839;52.404;9.808;2022-10-31T08:49:19;46.37;;;31.87;;
43226;SDS011;28839;52.404;9.808;2022-10-31T08:56:13;399.02;;;369.27;;
43226;SDS011;28839;52.404;9.808;2022-10-31T09:03:09;49.83;;;28.33;;
43226;SDS011;28839;52.404;9.808;2022-10-31T09:10:06;40.65;;;25.83;;
43226;SDS011;28839;52.404;9.808;2022-10-31T09:17:00;47.67;;;25.17;;
43226;SDS011;28839;52.404;9.808;2022-10-31T09:23:54;42.60;;;25.17;;
43226;SDS011;28839;52.404;9.808;2022-10-31T09:30:50;41.87;;;24.30;;
43226;SDS011;28839;52.404;9.808;2022-10-31T09:37:44;39.03;;;22.83;;
43226;SDS011;28839;52.404;9.808;2022-10-31T09:44:42;39.07;;;23.03;;
43226;SDS011;28839;52.404;9.808;2022-10-31T09:51:44;39.33;;;22.65;;
43226;SDS011;28839;52.404;9.808;2022-10-31T09:58:44;33.60;;;20.00;;
43226;SDS011;28839;52.404;9.808;2022-10-31T10:05:41;35.58;;;20.67;;
43226;SDS011;28839;52.404;9.808;2022-10-31T10:12:49;38.83;;;20.48;;
43226;SDS011;28839;52.404;9.808;2022-10-31T10:20:03;34.65;;;18.85;;
43226;SDS011;28839;52.404;9.808;2022-10-31T10:27:11;33.45;;;18.75;;
43226;SDS011;28839;52.404;9.808;2022-10-31T10:34:13;40.00;;;20.27;;
43226;SDS011;28839;52.404;9.808;2022-10-31T10:41:14;36.67;;;21.48;;
43226;SDS011;28839;52.404;9.808;2022-10-31T10:48:12;36.63;;;19.77;;
43226;SDS011;28839;52.404;9.808;2022-10-31T10:55:11;33.08;;;17.33;;
43226;SDS011;28839;52.404;9.808;2022-10-31T11:02:15;34.33;;;20.37;;
43226;SDS011;28839;52.404;9.808;2022-10-31T11:09:11;36.65;;;18.65;;
43226;SDS011;28839;52.404;9.808;2022-10-31T11:16:07;32.77;;;18.87;;
43226;SDS011;28839;52.404;9.808;2022-10-31T11:23:04;34.53;;;17.77;;
43226;SDS011;28839;52.404;9.808;2022-10-31T11:30:09;29.12;;;17.08;;
43226;SDS011;28839;52.404;9.808;2022-10-31T11:37:09;27.77;;;15.35;;
43226;SDS011;28839;52.404;9.808;2022-10-31T11:44:10;22.20;;;14.95;;
43226;SDS011;28839;52.404;9.808;2022-10-31T11:51:08;26.73;;;15.25;;
43226;SDS011;28839;52.404;9.808;2022-10-31T12:05:00;23.70;;;13.60;;
43226;SDS011;28839;52.404;9.808;2022-10-31T12:19:38;25.62;;;13.40;;
43226;SDS011;28839;52.404;9.808;2022-10-31T12:26:40;31.33;;;15.35;;
43226;SDS011;28839;52.404;9.808;2022-10-31T12:33:43;24.67;;;15.45;;
43226;SDS011;28839;52.404;9.808;2022-10-31T12:40:51;25.85;;;14.45;;
43226;SDS011;28839;52.404;9.808;2022-10-31T12:47:59;24.87;;;12.68;;
43226;SDS011;28839;52.404;9.808;2022-10-31T12:55:03;20.23;;;11.50;;
43226;SDS011;28839;52.404;9.808;2022-10-31T13:02:06;26.27;;;11.47;;
43226;SDS011;28839;52.404;9.808;2022-10-31T13:09:12;21.67;;;10.95;;
43226;SDS011;28839;52.404;9.808;2022-10-31T13:16:11;25.95;;;12.40;;
43226;SDS011;28839;52.404;9.808;2022-10-31T13:23:10;28.08;;;13.62;;
43226;SDS011;28839;52.404;9.808;2022-10-31T13:30:12;31.33;;;15.50;;
43226;SDS011;28839;52.404;9.808;2022-10-31T13:37:12;31.95;;;15.05;;
43226;SDS011;28839;52.404;9.808;2022-10-31T13:44:17;26.58;;;16.37;;
43226;SDS011;28839;52.404;9.808;2022-10-31T13:51:23;32.15;;;16.77;;
43226;SDS011;28839;52.404;9.808;2022-10-31T14:05:21;39.78;;;24.60;;
43226;SDS011;28839;52.404;9.808;2022-10-31T14:12:22;42.62;;;25.05;;
43226;SDS011;28839;52.404;9.808;2022-10-31T14:19:19;44.22;;;25.65;;
43226;SDS011;28839;52.404;9.808;2022-10-31T14:26:30;43.47;;;25.05;;
43226;SDS011;28839;52.404;9.808;2022-10-31T14:33:26;46.92;;;27.45;;
43226;SDS011;28839;52.404;9.808;2022-10-31T14:40:24;44.78;;;25.27;;
43226;SDS011;28839;52.404;9.808;2022-10-31T14:47:28;40.70;;;24.77;;
43226;SDS011;28839;52.404;9.808;2022-10-31T14:54:29;42.30;;;24.42;;
43226;SDS011;28839;52.404;9.808;2022-10-31T15:01:28;39.17;;;24.55;;
43226;SDS011;28839;52.404;9.808;2022-10-31T15:08:31;43.00;;;23.52;;
43226;SDS011;28839;52.404;9.808;2022-10-31T15:15:27;58.87;;;23.07;;
43226;SDS011;28839;52.404;9.808;2022-10-31T15:22:23;36.40;;;21.55;;
43226;SDS011;28839;52.404;9.808;2022-10-31T15:29:20;39.05;;;22.13;;
43226;SDS011;28839;52.404;9.808;2022-10-31T15:36:18;42.97;;;23.42;;
43226;SDS011;28839;52.404;9.808;2022-10-31T15:43:13;39.42;;;22.17;;
43226;SDS011;28839;52.404;9.808;2022-10-31T15:50:19;40.53;;;23.33;;
43226;SDS011;28839;52.404;9.808;2022-10-31T15:57:15;45.40;;;25.15;;
43226;SDS011;28839;52.404;9.808;2022-10-31T16:04:19;47.70;;;25.12;;
43226;SDS011;28839;52.404;9.808;2022-10-31T16:11:17;49.60;;;24.27;;
43226;SDS011;28839;52.404;9.808;2022-10-31T16:18:16;49.92;;;26.08;;
43226;SDS011;28839;52.404;9.808;2022-10-31T16:25:11;42.93;;;24.77;;
43226;SDS011;28839;52.404;9.808;2022-10-31T16:39:27;54.20;;;30.08;;
43226;SDS011;28839;52.404;9.808;2022-10-31T16:46:22;45.97;;;27.52;;
43226;SDS011;28839;52.404;9.808;2022-10-31T16:53:17;45.92;;;30.77;;
43226;SDS011;28839;52.404;9.808;2022-10-31T17:00:16;51.20;;;35.27;;
43226;SDS011;28839;52.404;9.808;2022-10-31T17:07:12;50.58;;;32.03;;
43226;SDS011;28839;52.404;9.808;2022-10-31T17:14:07;89.70;;;81.30;;
43226;SDS011;28839;52.404;9.808;2022-10-31T17:21:03;164.05;;;151.45;;
43226;SDS011;28839;52.404;9.808;2022-10-31T17:27:58;1555.93;;;706.50;;
43226;SDS011;28839;52.404;9.808;2022-10-31T17:34:52;1999.90;;;959.77;;
43226;SDS011;28839;52.404;9.808;2022-10-31T17:41:50;1920.23;;;808.80;;
43226;SDS011;28839;52.404;9.808;2022-10-31T17:48:44;1131.75;;;728.62;;
43226;SDS011;28839;52.404;9.808;2022-10-31T17:55:38;1788.23;;;941.17;;
43226;SDS011;28839;52.404;9.808;2022-10-31T18:02:34;1168.60;;;843.73;;
43226;SDS011;28839;52.404;9.808;2022-10-31T18:09:28;1999.90;;;999.90;;
43226;SDS011;28839;52.404;9.808;2022-10-31T18:16:23;1999.90;;;999.90;;
43226;SDS011;28839;52.404;9.808;2022-10-31T18:23:19;1470.80;;;748.58;;
43226;SDS011;28839;52.404;9.808;2022-10-31T18:30:13;1999.90;;;999.90;;
43226;SDS011;28839;52.404;9.808;2022-10-31T18:37:07;1701.13;;;923.72;;
43226;SDS011;28839;52.404;9.808;2022-10-31T18:44:02;1999.90;;;999.90;;
43226;SDS011;28839;52.404;9.808;2022-10-31T18:50:57;1999.90;;;999.90;;
43226;SDS011;28839;52.404;9.808;2022-10-31T18:57:53;1999.90;;;999.90;;
43226;SDS011;28839;52.404;9.808;2022-10-31T19:04:49;1999.90;;;999.90;;
43226;SDS011;28839;52.404;9.808;2022-10-31T19:11:43;1999.90;;;999.25;;
43226;SDS011;28839;52.404;9.808;2022-10-31T19:18:37;1999.90;;;999.90;;
43226;SDS011;28839;52.404;9.808;2022-10-31T19:32:27;1995.32;;;999.90;;
43226;SDS011;28839;52.404;9.808;2022-10-31T19:39:21;1077.00;;;973.13;;
43226;SDS011;28839;52.404;9.808;2022-10-31T19:46:16;324.00;;;297.47;;
43226;SDS011;28839;52.404;9.808;2022-10-31T19:53:13;629.17;;;584.55;;
43226;SDS011;28839;52.404;9.808;2022-10-31T20:00:08;145.53;;;62.43;;
43226;SDS011;28839;52.404;9.808;2022-10-31T20:07:05;141.48;;;62.83;;
43226;SDS011;28839;52.404;9.808;2022-10-31T20:14:00;124.65;;;57.00;;
43226;SDS011;28839;52.404;9.808;2022-10-31T20:20:59;128.37;;;55.63;;
43226;SDS011;28839;52.404;9.808;2022-10-31T20:27:55;134.23;;;57.15;;
43226;SDS011;28839;52.404;9.808;2022-10-31T20:34:49;132.45;;;57.22;;
43226;SDS011;28839;52.404;9.808;2022-10-31T20:41:44;129.55;;;59.13;;
43226;SDS011;28839;52.404;9.808;2022-10-31T20:48:41;130.75;;;59.85;;
43226;SDS011;28839;52.404;9.808;2022-10-31T20:55:34;128.57;;;61.90;;
43226;SDS011;28839;52.404;9.808;2022-10-31T21:02:28;135.10;;;62.80;;
43226;SDS011;28839;52.404;9.808;2022-10-31T21:09:24;136.60;;;61.97;;
43226;SDS011;28839;52.404;9.808;2022-10-31T21:16:18;134.90;;;61.20;;
43226;SDS011;28839;52.404;9.808;2022-10-31T21:23:14;122.72;;;59.33;;
43226;SDS011;28839;52.404;9.808;2022-10-31T21:30:09;118.03;;;59.00;;
43226;SDS011;28839;52.404;9.808;2022-10-31T21:37:03;115.93;;;59.58;;
43226;SDS011;28839;52.404;9.808;2022-10-31T21:43:57;120.77;;;59.20;;
43226;SDS011;28839;52.404;9.808;2022-10-31T21:50:53;128.75;;;59.67;;
43226;SDS011;28839;52.404;9.808;2022-10-31T21:57:48;113.45;;;53.55;;
43226;SDS011;28839;52.404;9.808;2022-10-31T22:04:43;105.37;;;52.97;;
43226;SDS011;28839;52.404;9.808;2022-10-31T22:11:42;117.18;;;56.40;;
43226;SDS011;28839;52.404;9.808;2022-10-31T22:18:37;113.25;;;53.92;;
43226;SDS011;28839;52.404;9.808;2022-10-31T22:32:29;101.12;;;49.42;;
43226;SDS011;28839;52.404;9.808;2022-10-31T22:39:23;115.07;;;53.28;;
43226;SDS011;28839;52.404;9.808;2022-10-31T22:46:19;99.45;;;51.50;;
43226;SDS011;28839;52.404;9.808;2022-10-31T22:53:15;104.30;;;51.67;;
43226;SDS011;28839;52.404;9.808;2022-10-31T23:00:10;109.10;;;53.33;;
43226;SDS011;28839;52.404;9.808;2022-10-31T23:07:07;111.90;;;53.63;;
43226;SDS011;28839;52.404;9.808;2022-10-31T23:14:04;113.85;;;53.75;;
43226;SDS011;28839;52.404;9.808;2022-10-31T23:21:03;119.13;;;55.58;;
43226;SDS011;28839;52.404;9.808;2022-10-31T23:27:58;106.97;;;51.33;;
43226;SDS011;28839;52.404;9.808;2022-10-31T23:34:54;107.90;;;52.93;;
43226;SDS011;28839;52.404;9.808;2022-10-31T23:41:49;101.03;;;51.08;;
43226;SDS011;28839;52.404;9.808;2022-10-31T23:48:43;96.23;;;50.43;;
43226;SDS011;28839;52.404;9.808;2022-10-31T23:55:40;94.25;;;48.60;;
